createdAt,value
2019-03-17T00:00:27.649Z,5.87
2019-03-17T00:01:57.623Z,5.07
2019-03-17T00:03:20.618Z,5.90
2019-03-17T00:04:46.084Z,5.30
2019-03-17T00:06:11.585Z,4.70
2019-03-17T00:07:37.046Z,4.60
2019-03-17T00:09:02.501Z,4.50
2019-03-17T00:10:28.035Z,5.43
2019-03-17T00:11:53.510Z,5.83
2019-03-17T00:13:18.978Z,5.73
2019-03-17T00:14:44.431Z,5.90
2019-03-17T00:16:10.230Z,5.30
2019-03-17T00:17:35.693Z,5.70
2019-03-17T00:19:01.064Z,5.30
2019-03-17T00:20:26.525Z,5.90
2019-03-17T00:21:52.093Z,5.03
2019-03-17T00:23:17.535Z,5.20
2019-03-17T00:24:43.010Z,6.23
2019-03-17T00:26:08.487Z,6.07
2019-03-17T00:27:33.922Z,4.90
2019-03-17T00:28:59.373Z,6.10
2019-03-17T00:30:24.936Z,6.50
2019-03-17T00:31:50.413Z,6.00
2019-03-17T00:33:15.860Z,5.63
2019-03-17T00:34:44.366Z,5.80
2019-03-17T00:36:08.374Z,5.90
2019-03-17T00:37:33.865Z,6.27
2019-03-17T00:38:59.375Z,6.13
2019-03-17T00:40:24.987Z,6.20
2019-03-17T00:41:50.507Z,7.10
2019-03-17T00:43:15.922Z,5.53
2019-03-17T00:44:41.360Z,5.60
2019-03-17T00:46:06.834Z,6.60
2019-03-17T00:47:32.371Z,6.90
2019-03-17T00:48:57.750Z,6.60
2019-03-17T00:50:23.228Z,6.60
2019-03-17T00:51:48.679Z,7.83
2019-03-17T00:53:14.181Z,7.40
2019-03-17T00:54:39.613Z,7.27
2019-03-17T00:56:05.312Z,7.40
2019-03-17T00:57:30.741Z,6.57
2019-03-17T00:58:56.307Z,7.28
2019-03-17T01:00:21.826Z,6.70
2019-03-17T01:01:47.351Z,6.10
2019-03-17T01:03:12.873Z,6.10
2019-03-17T01:04:38.335Z,6.37
2019-03-17T01:06:03.844Z,6.67
2019-03-17T01:07:29.302Z,5.65
2019-03-17T01:08:54.845Z,6.75
2019-03-17T01:10:20.347Z,6.45
2019-03-17T01:11:45.750Z,6.03
2019-03-17T01:13:11.224Z,5.45
2019-03-17T01:14:36.680Z,6.00
2019-03-17T01:16:02.147Z,5.37
2019-03-17T01:17:27.662Z,5.10
2019-03-17T01:18:53.131Z,4.27
2019-03-17T01:20:18.624Z,4.65
2019-03-17T01:21:44.089Z,5.67
2019-03-17T01:23:09.563Z,5.17
2019-03-17T01:24:35.034Z,5.57
2019-03-17T01:26:00.482Z,5.60
2019-03-17T01:27:25.926Z,5.62
2019-03-17T01:28:51.452Z,5.80
2019-03-17T01:30:17.035Z,5.80
2019-03-17T01:31:42.500Z,5.63
2019-03-17T01:33:08.143Z,5.30
2019-03-17T01:34:33.636Z,6.33
2019-03-17T01:35:59.062Z,4.87
2019-03-17T01:37:24.564Z,4.85
2019-03-17T01:38:50.068Z,5.55
2019-03-17T01:40:15.681Z,5.13
2019-03-17T01:41:41.123Z,5.50
2019-03-17T01:43:06.591Z,6.15
2019-03-17T01:44:32.131Z,5.95
2019-03-17T01:45:57.543Z,5.73
2019-03-17T01:47:22.980Z,4.80
2019-03-17T01:48:48.552Z,6.62
2019-03-17T01:50:14.183Z,6.47
2019-03-17T01:51:39.638Z,6.25
2019-03-17T01:53:05.139Z,6.65
2019-03-17T01:54:30.633Z,5.75
2019-03-17T01:55:56.075Z,5.35
2019-03-17T01:57:21.548Z,6.20
2019-03-17T01:58:47.007Z,6.47
2019-03-17T02:00:13.519Z,5.22
2019-03-17T02:01:38.946Z,5.25
2019-03-17T02:03:04.419Z,5.08
2019-03-17T02:04:29.870Z,5.95
2019-03-17T02:05:55.318Z,6.70
2019-03-17T02:07:20.883Z,5.70
2019-03-17T02:08:46.297Z,5.53
2019-03-17T02:10:11.970Z,5.33
2019-03-17T02:11:37.432Z,5.22
2019-03-17T02:13:02.880Z,5.80
2019-03-17T02:14:28.386Z,5.50
2019-03-17T02:15:53.827Z,5.45
2019-03-17T02:17:19.279Z,5.13
2019-03-17T02:18:44.711Z,5.05
2019-03-17T02:20:10.416Z,5.37
2019-03-17T02:21:35.901Z,5.55
2019-03-17T02:23:01.259Z,6.03
2019-03-17T02:24:26.734Z,5.10
2019-03-17T02:25:52.180Z,5.90
2019-03-17T02:27:17.636Z,4.90
2019-03-17T02:28:43.075Z,5.12
2019-03-17T02:30:09.897Z,4.58
2019-03-17T02:31:35.366Z,5.08
2019-03-17T02:33:00.800Z,4.12
2019-03-17T02:34:26.266Z,4.17
2019-03-17T02:35:51.740Z,4.08
2019-03-17T02:37:17.193Z,3.22
2019-03-17T02:38:42.573Z,3.10
2019-03-17T02:40:08.397Z,3.45
2019-03-17T02:41:33.825Z,3.15
2019-03-17T02:42:59.279Z,3.83
2019-03-17T02:44:24.717Z,3.60
2019-03-17T02:45:50.219Z,4.35
2019-03-17T02:47:15.670Z,4.42
2019-03-17T02:48:41.131Z,3.67
2019-03-17T02:50:06.843Z,4.10
2019-03-17T02:51:32.331Z,4.55
2019-03-17T02:52:57.784Z,3.80
2019-03-17T02:54:23.179Z,3.52
2019-03-17T02:55:48.635Z,4.03
2019-03-17T02:57:14.107Z,4.97
2019-03-17T02:58:39.528Z,4.05
2019-03-17T03:00:05.575Z,3.98
2019-03-17T03:01:31.262Z,4.28
2019-03-17T03:02:56.668Z,4.12
2019-03-17T03:04:22.231Z,3.80
2019-03-17T03:05:54.598Z,3.50
2019-03-17T03:07:14.782Z,4.00
2019-03-17T03:08:40.192Z,3.65
2019-03-17T03:10:06.015Z,3.60
2019-03-17T03:11:31.491Z,3.40
2019-03-17T03:12:56.985Z,3.83
2019-03-17T03:14:22.432Z,3.67
2019-03-17T03:15:47.905Z,3.95
2019-03-17T03:17:13.392Z,4.60
2019-03-17T03:18:38.837Z,3.60
2019-03-17T03:20:04.615Z,3.40
2019-03-17T03:21:30.183Z,3.37
2019-03-17T03:22:55.657Z,3.40
2019-03-17T03:24:21.122Z,3.90
2019-03-17T03:25:46.547Z,4.28
2019-03-17T03:27:12.014Z,3.72
2019-03-17T03:28:37.542Z,4.92
2019-03-17T03:30:03.061Z,4.10
2019-03-17T03:31:28.551Z,4.03
2019-03-17T03:32:54.028Z,4.33
2019-03-17T03:34:19.477Z,4.75
2019-03-17T03:35:44.939Z,4.58
2019-03-17T03:37:10.409Z,4.42
2019-03-17T03:38:35.779Z,5.08
2019-03-17T03:40:01.269Z,4.20
2019-03-17T03:41:26.826Z,5.75
2019-03-17T03:42:52.271Z,4.85
2019-03-17T03:44:17.773Z,5.75
2019-03-17T03:45:43.238Z,6.00
2019-03-17T03:47:08.670Z,5.80
2019-03-17T03:48:34.143Z,6.62
2019-03-17T03:49:59.621Z,5.85
2019-03-17T03:51:25.104Z,5.35
2019-03-17T03:52:50.731Z,5.90
2019-03-17T03:54:16.261Z,5.70
2019-03-17T03:55:42.427Z,6.15
2019-03-17T03:57:08.156Z,5.40
2019-03-17T03:58:33.571Z,5.53
2019-03-17T03:59:59.031Z,5.62
2019-03-17T04:01:24.501Z,5.45
2019-03-17T04:02:51.470Z,5.50
2019-03-17T04:04:17.216Z,5.30
2019-03-17T04:05:42.656Z,5.80
2019-03-17T04:07:08.147Z,5.15
2019-03-17T04:08:33.580Z,4.97
2019-03-17T04:09:59.117Z,5.97
2019-03-17T04:11:24.625Z,5.62
2019-03-17T04:12:50.089Z,4.70
2019-03-17T04:14:15.567Z,4.80
2019-03-17T04:15:40.970Z,5.75
2019-03-17T04:17:06.459Z,5.75
2019-03-17T04:18:31.894Z,5.03
2019-03-17T04:19:57.347Z,4.45
2019-03-17T04:21:22.784Z,4.33
2019-03-17T04:22:48.251Z,4.03
2019-03-17T04:24:13.713Z,3.75
2019-03-17T04:25:39.139Z,3.08
2019-03-17T04:27:04.707Z,3.62
2019-03-17T04:28:30.207Z,4.10
2019-03-17T04:29:55.633Z,3.80
2019-03-17T04:31:21.029Z,3.52
2019-03-17T04:32:46.613Z,3.33
2019-03-17T04:34:12.046Z,4.15
2019-03-17T04:35:37.509Z,3.40
2019-03-17T04:37:02.922Z,4.35
2019-03-17T04:38:28.408Z,3.80
2019-03-17T04:39:53.935Z,3.35
2019-03-17T04:41:19.355Z,3.25
2019-03-17T04:42:44.880Z,3.17
2019-03-17T04:44:20.435Z,2.47
2019-03-17T04:45:37.476Z,3.67
2019-03-17T04:47:02.870Z,2.85
2019-03-17T04:48:28.319Z,2.75
2019-03-17T04:49:53.809Z,2.60
2019-03-17T04:51:19.275Z,2.95
2019-03-17T04:52:44.744Z,2.70
2019-03-17T04:54:10.210Z,2.52
2019-03-17T04:55:35.667Z,3.00
2019-03-17T04:57:01.304Z,2.10
2019-03-17T04:58:26.763Z,3.02
2019-03-17T04:59:52.220Z,3.05
2019-03-17T05:01:17.672Z,3.22
2019-03-17T05:02:45.464Z,2.25
2019-03-17T05:04:10.211Z,2.90
2019-03-17T05:05:35.634Z,3.40
2019-03-17T05:07:01.107Z,3.80
2019-03-17T05:08:26.587Z,4.28
2019-03-17T05:09:52.154Z,6.22
2019-03-17T05:11:20.623Z,12.05
2019-03-17T05:12:46.169Z,15.68
2019-03-17T05:14:11.649Z,25.75
2019-03-17T05:15:37.299Z,27.15
2019-03-17T05:17:02.912Z,30.30
2019-03-17T05:18:28.377Z,37.45
2019-03-17T05:19:53.863Z,45.38
2019-03-17T05:21:19.426Z,41.00
2019-03-17T05:22:44.847Z,36.17
2019-03-17T05:24:10.322Z,33.85
2019-03-17T05:25:35.797Z,32.60
2019-03-17T05:27:01.227Z,32.65
2019-03-17T05:28:26.630Z,34.98
2019-03-17T05:29:52.135Z,37.23
2019-03-17T05:31:20.520Z,35.73
2019-03-17T05:32:46.135Z,31.35
2019-03-17T05:34:11.600Z,25.00
2019-03-17T05:35:37.082Z,22.05
2019-03-17T05:37:06.473Z,20.55
2019-03-17T05:38:29.653Z,18.75
2019-03-17T05:39:55.161Z,14.47
2019-03-17T05:41:20.690Z,11.45
2019-03-17T05:42:46.266Z,10.75
2019-03-17T05:44:11.740Z,10.60
2019-03-17T05:45:37.186Z,10.15
2019-03-17T05:47:02.635Z,10.55
2019-03-17T05:48:28.135Z,8.60
2019-03-17T05:49:53.643Z,7.80
2019-03-17T05:51:20.747Z,6.83
2019-03-17T05:52:47.507Z,7.90
2019-03-17T05:54:12.959Z,6.60
2019-03-17T05:55:38.435Z,7.87
2019-03-17T05:57:03.919Z,8.20
2019-03-17T05:58:29.302Z,9.25
2019-03-17T05:59:54.779Z,9.28
2019-03-17T06:01:20.197Z,10.38
2019-03-17T06:02:45.915Z,10.75
2019-03-17T06:04:11.345Z,11.22
2019-03-17T06:05:36.855Z,12.35
2019-03-17T06:07:02.319Z,13.40
2019-03-17T06:08:27.773Z,15.80
2019-03-17T06:09:53.215Z,15.65
2019-03-17T06:11:18.714Z,17.12
2019-03-17T06:12:44.215Z,16.00
2019-03-17T06:14:09.685Z,18.42
2019-03-17T06:15:35.162Z,19.95
2019-03-17T06:17:00.614Z,19.67
2019-03-17T06:18:26.026Z,20.00
2019-03-17T06:19:51.454Z,19.87
2019-03-17T06:21:17.050Z,22.55
2019-03-17T06:22:42.493Z,21.90
2019-03-17T06:24:07.988Z,21.80
2019-03-17T06:25:33.513Z,21.37
2019-03-17T06:26:58.968Z,21.85
2019-03-17T06:28:24.450Z,21.52
2019-03-17T06:29:49.888Z,20.70
2019-03-17T06:31:15.492Z,21.17
2019-03-17T06:32:40.928Z,21.15
2019-03-17T06:34:06.489Z,19.95
2019-03-17T06:35:31.978Z,19.27
2019-03-17T06:36:57.452Z,18.90
2019-03-17T06:38:22.886Z,18.17
2019-03-17T06:39:48.436Z,17.42
2019-03-17T06:41:13.864Z,14.58
2019-03-17T06:42:39.316Z,14.10
2019-03-17T06:44:04.967Z,14.60
2019-03-17T06:45:30.524Z,11.80
2019-03-17T06:46:55.976Z,12.58
2019-03-17T06:48:21.436Z,11.43
2019-03-17T06:49:49.606Z,12.23
2019-03-17T06:51:15.097Z,10.10
2019-03-17T06:52:40.555Z,9.90
2019-03-17T06:54:06.050Z,10.13
2019-03-17T06:55:31.519Z,8.25
2019-03-17T06:56:56.983Z,8.20
2019-03-17T06:58:22.396Z,7.40
2019-03-17T06:59:47.947Z,7.10
2019-03-17T07:01:13.510Z,6.35
2019-03-17T07:02:38.962Z,6.15
2019-03-17T07:04:04.381Z,5.60
2019-03-17T07:05:29.871Z,6.35
2019-03-17T07:06:55.473Z,7.67
2019-03-17T07:08:20.956Z,8.93
2019-03-17T07:09:47.450Z,9.95
2019-03-17T07:11:12.957Z,10.50
2019-03-17T07:12:47.894Z,13.48
2019-03-17T07:14:19.501Z,14.75
2019-03-17T07:15:46.627Z,16.40
2019-03-17T07:17:12.191Z,17.87
2019-03-17T07:18:37.665Z,20.23
2019-03-17T07:20:03.125Z,21.55
2019-03-17T07:21:28.576Z,22.30
2019-03-17T07:22:54.269Z,26.73
2019-03-17T07:24:19.743Z,22.98
2019-03-17T07:25:45.154Z,24.37
2019-03-17T07:27:10.646Z,24.52
2019-03-17T07:28:36.062Z,23.05
2019-03-17T07:30:01.482Z,24.12
2019-03-17T07:31:26.935Z,23.10
2019-03-17T07:32:52.411Z,21.82
2019-03-17T07:34:18.059Z,23.07
2019-03-17T07:35:46.189Z,22.87
2019-03-17T07:37:10.751Z,29.63
2019-03-17T07:38:36.197Z,35.52
2019-03-17T07:40:01.661Z,35.55
2019-03-17T07:41:27.110Z,39.83
2019-03-17T07:42:52.605Z,57.78
2019-03-17T07:44:18.039Z,86.35
2019-03-17T07:45:43.499Z,90.45
2019-03-17T07:47:09.071Z,88.47
2019-03-17T07:48:34.558Z,93.15
2019-03-17T07:50:00.064Z,84.17
2019-03-17T07:51:25.562Z,70.42
2019-03-17T07:52:51.113Z,58.38
2019-03-17T07:54:18.077Z,46.63
2019-03-17T07:55:43.550Z,35.33
2019-03-17T07:57:09.073Z,26.85
2019-03-17T07:58:34.545Z,24.47
2019-03-17T08:00:01.209Z,27.30
2019-03-17T08:01:26.681Z,22.27
2019-03-17T08:02:52.157Z,21.12
2019-03-17T08:04:17.851Z,16.70
2019-03-17T08:05:43.742Z,13.40
2019-03-17T08:07:09.223Z,13.78
2019-03-17T08:08:34.819Z,12.88
2019-03-17T08:10:00.464Z,8.00
2019-03-17T08:11:26.000Z,8.30
2019-03-17T08:12:51.437Z,7.03
2019-03-17T08:14:17.037Z,8.65
2019-03-17T08:15:42.500Z,8.68
2019-03-17T08:17:07.938Z,8.53
2019-03-17T08:18:33.439Z,10.43
2019-03-17T08:19:58.892Z,9.25
2019-03-17T08:21:24.390Z,9.15
2019-03-17T08:22:49.841Z,8.63
2019-03-17T08:24:16.683Z,10.48
2019-03-17T08:25:42.333Z,9.17
2019-03-17T08:27:07.898Z,8.43
2019-03-17T08:28:33.515Z,8.13
2019-03-17T08:29:59.100Z,7.80
2019-03-17T08:31:24.975Z,8.20
2019-03-17T08:32:50.415Z,7.47
2019-03-17T08:34:16.000Z,7.55
2019-03-17T08:35:41.591Z,6.97
2019-03-17T08:37:07.094Z,6.60
2019-03-17T08:38:32.654Z,6.40
2019-03-17T08:39:58.188Z,6.20
2019-03-17T08:41:26.783Z,6.93
2019-03-17T08:42:52.287Z,6.20
2019-03-17T08:44:17.922Z,5.90
2019-03-17T08:45:43.453Z,4.83
2019-03-17T08:47:08.883Z,4.00
2019-03-17T08:48:34.314Z,4.55
2019-03-17T08:49:59.844Z,5.40
2019-03-17T08:51:25.986Z,6.42
2019-03-17T08:52:51.741Z,5.40
2019-03-17T08:54:17.399Z,4.80
2019-03-17T08:55:43.123Z,4.20
2019-03-17T08:57:08.644Z,4.40
2019-03-17T08:58:34.149Z,4.10
2019-03-17T09:00:02.985Z,4.72
2019-03-17T09:01:28.444Z,4.30
2019-03-17T09:02:53.931Z,4.85
2019-03-17T09:04:19.404Z,3.90
2019-03-17T09:05:44.819Z,3.95
2019-03-17T09:07:10.451Z,4.05
2019-03-17T09:08:36.597Z,4.28
2019-03-17T09:10:02.804Z,4.28
2019-03-17T09:11:29.303Z,4.15
2019-03-17T09:12:55.201Z,4.47
2019-03-17T09:14:21.246Z,4.40
2019-03-17T09:15:48.593Z,4.05
2019-03-17T09:17:14.891Z,4.97
2019-03-17T09:18:40.547Z,5.25
2019-03-17T09:20:06.417Z,5.58
2019-03-17T09:21:31.827Z,5.93
2019-03-17T09:23:07.146Z,5.65
2019-03-17T09:24:37.428Z,5.50
2019-03-17T09:26:04.080Z,5.65
2019-03-17T09:27:29.519Z,5.50
2019-03-17T09:28:55.047Z,5.17
2019-03-17T09:30:20.828Z,5.37
2019-03-17T09:31:46.242Z,4.90
2019-03-17T09:33:11.809Z,4.70
2019-03-17T09:34:37.291Z,4.87
2019-03-17T09:36:02.752Z,3.93
2019-03-17T09:37:28.840Z,4.17
2019-03-17T09:38:54.303Z,5.50
2019-03-17T09:40:19.780Z,4.55
2019-03-17T09:41:45.265Z,4.27
2019-03-17T09:43:10.813Z,4.03
2019-03-17T09:44:36.667Z,3.80
2019-03-17T09:46:02.225Z,3.33
2019-03-17T09:47:27.702Z,4.10
2019-03-17T09:48:53.134Z,4.25
2019-03-17T09:50:19.145Z,4.30
2019-03-17T09:51:44.729Z,4.30
2019-03-17T09:53:10.198Z,4.53
2019-03-17T09:54:35.650Z,4.33
2019-03-17T09:56:01.210Z,4.30
2019-03-17T09:57:29.294Z,4.10
2019-03-17T09:58:54.832Z,4.90
2019-03-17T10:00:20.379Z,4.37
2019-03-17T10:01:45.831Z,4.93
2019-03-17T10:03:11.441Z,4.73
2019-03-17T10:04:36.945Z,5.37
2019-03-17T10:06:02.536Z,5.73
2019-03-17T10:07:28.157Z,6.03
2019-03-17T10:08:59.892Z,6.27
2019-03-17T10:10:23.979Z,5.20
2019-03-17T10:11:49.420Z,5.47
2019-03-17T10:13:15.117Z,6.07
2019-03-17T10:14:40.953Z,5.80
2019-03-17T10:16:06.497Z,4.90
2019-03-17T10:17:32.143Z,5.17
2019-03-17T10:18:57.578Z,5.47
2019-03-17T10:20:22.985Z,4.57
2019-03-17T10:21:51.443Z,5.80
2019-03-17T10:23:17.045Z,4.10
2019-03-17T10:24:42.516Z,5.23
2019-03-17T10:26:08.267Z,4.30
2019-03-17T10:27:33.804Z,4.90
2019-03-17T10:28:59.226Z,4.70
2019-03-17T10:30:24.915Z,3.90
2019-03-17T10:31:50.425Z,4.30
2019-03-17T10:33:16.016Z,4.27
2019-03-17T10:34:41.625Z,5.00
2019-03-17T10:36:07.234Z,4.63
2019-03-17T10:37:33.065Z,3.90
2019-03-17T10:38:58.708Z,5.60
2019-03-17T10:40:24.302Z,4.17
2019-03-17T10:41:49.854Z,3.93
2019-03-17T10:43:15.305Z,4.27
2019-03-17T10:44:40.796Z,3.77
2019-03-17T10:46:06.378Z,4.43
2019-03-17T10:47:31.988Z,4.13
2019-03-17T10:48:57.450Z,4.23
2019-03-17T10:50:23.006Z,3.47
2019-03-17T10:51:48.580Z,3.57
2019-03-17T10:53:14.553Z,3.63
2019-03-17T10:54:40.329Z,3.90
2019-03-17T10:56:06.080Z,3.50
2019-03-17T10:57:31.635Z,2.97
2019-03-17T10:58:57.097Z,3.53
2019-03-17T11:00:25.516Z,4.70
2019-03-17T11:01:51.119Z,4.20
2019-03-17T11:03:16.703Z,3.90
2019-03-17T11:04:42.175Z,4.27
2019-03-17T11:06:07.566Z,3.77
2019-03-17T11:07:33.120Z,4.30
2019-03-17T11:08:58.672Z,4.43
2019-03-17T11:10:24.067Z,4.20
2019-03-17T11:11:49.531Z,4.10
2019-03-17T11:13:14.991Z,3.93
2019-03-17T11:14:40.487Z,3.57
2019-03-17T11:16:08.766Z,4.30
2019-03-17T11:17:34.403Z,4.00
2019-03-17T11:19:00.127Z,3.50
2019-03-17T11:20:26.191Z,4.40
2019-03-17T11:21:51.724Z,4.10
2019-03-17T11:23:17.493Z,4.17
2019-03-17T11:24:43.086Z,4.70
2019-03-17T11:26:08.735Z,3.60
2019-03-17T11:27:34.689Z,4.30
2019-03-17T11:29:00.348Z,4.60
2019-03-17T11:30:25.822Z,3.90
2019-03-17T11:31:51.362Z,3.83
2019-03-17T11:33:17.135Z,5.03
2019-03-17T11:34:43.095Z,4.17
2019-03-17T11:36:08.611Z,4.62
2019-03-17T11:37:34.500Z,3.57
2019-03-17T11:38:59.990Z,4.30
2019-03-17T11:40:25.827Z,4.57
2019-03-17T11:41:51.331Z,4.90
2019-03-17T11:43:16.919Z,3.80
2019-03-17T11:44:42.553Z,3.80
2019-03-17T11:46:08.192Z,4.57
2019-03-17T11:47:34.279Z,4.33
2019-03-17T11:48:59.885Z,4.53
2019-03-17T11:50:25.378Z,4.70
2019-03-17T11:51:50.864Z,5.23
2019-03-17T11:53:16.458Z,4.53
2019-03-17T11:54:42.187Z,4.43
2019-03-17T11:56:07.648Z,4.63
2019-03-17T11:57:33.165Z,4.60
2019-03-17T11:59:02.973Z,4.20
2019-03-17T12:00:28.509Z,4.43
2019-03-17T12:01:53.998Z,5.00
2019-03-17T12:03:19.584Z,4.47
2019-03-17T12:04:45.098Z,4.67
2019-03-17T12:06:10.724Z,5.13
2019-03-17T12:07:36.350Z,4.80
2019-03-17T12:09:04.366Z,4.23
2019-03-17T12:10:29.413Z,4.90
2019-03-17T12:11:54.929Z,3.90
2019-03-17T12:13:21.179Z,4.50
2019-03-17T12:14:47.179Z,4.10
2019-03-17T12:16:12.640Z,5.20
2019-03-17T12:17:38.689Z,4.90
2019-03-17T12:19:23.094Z,4.23
2019-03-17T12:20:48.927Z,4.00
2019-03-17T12:22:14.361Z,3.87
2019-03-17T12:23:39.864Z,4.07
2019-03-17T12:25:05.767Z,4.53
2019-03-17T12:26:31.380Z,3.60
2019-03-17T12:27:57.072Z,4.63
2019-03-17T12:29:22.882Z,3.80
2019-03-17T12:30:48.334Z,4.07
2019-03-17T12:32:13.762Z,4.50
2019-03-17T12:33:39.182Z,5.30
2019-03-17T12:35:04.834Z,5.03
2019-03-17T12:36:30.272Z,5.20
2019-03-17T12:37:55.832Z,5.20
2019-03-17T12:39:21.339Z,4.77
2019-03-17T12:40:46.807Z,4.33
2019-03-17T12:42:12.297Z,4.60
2019-03-17T12:43:37.824Z,5.10
2019-03-17T12:45:03.462Z,3.90
2019-03-17T12:46:28.927Z,4.80
2019-03-17T12:47:54.345Z,4.60
2019-03-17T12:49:19.868Z,4.10
2019-03-17T12:50:45.285Z,4.90
2019-03-17T12:52:10.729Z,5.13
2019-03-17T12:53:39.419Z,4.47
2019-03-17T12:55:05.397Z,4.10
2019-03-17T12:56:30.950Z,4.80
2019-03-17T12:57:56.531Z,4.37
2019-03-17T12:59:22.059Z,4.67
2019-03-17T13:00:50.092Z,4.90
2019-03-17T13:02:15.563Z,4.53
2019-03-17T13:03:41.019Z,4.93
2019-03-17T13:05:06.663Z,4.90
2019-03-17T13:06:32.139Z,3.80
2019-03-17T13:07:57.628Z,3.80
2019-03-17T13:09:23.134Z,4.10
2019-03-17T13:10:48.655Z,3.83
2019-03-17T13:12:14.352Z,4.50
2019-03-17T13:13:39.822Z,3.70
2019-03-17T13:15:05.636Z,4.43
2019-03-17T13:16:34.931Z,3.40
2019-03-17T13:18:00.366Z,3.97
2019-03-17T13:19:25.858Z,4.40
2019-03-17T13:20:51.354Z,4.17
2019-03-17T13:22:16.892Z,3.60
2019-03-17T13:23:42.319Z,4.33
2019-03-17T13:25:08.382Z,4.70
2019-03-17T13:26:33.911Z,6.67
2019-03-17T13:27:59.315Z,8.00
2019-03-17T13:29:24.811Z,9.40
2019-03-17T13:30:50.352Z,5.40
2019-03-17T13:32:15.906Z,4.50
2019-03-17T13:33:41.423Z,4.30
2019-03-17T13:35:07.522Z,4.23
2019-03-17T13:36:33.114Z,4.00
2019-03-17T13:37:58.564Z,5.03
2019-03-17T13:39:23.999Z,4.03
2019-03-17T13:40:49.453Z,4.90
2019-03-17T13:42:14.915Z,4.43
2019-03-17T13:43:40.377Z,4.90
2019-03-17T13:45:06.440Z,5.60
2019-03-17T13:46:31.883Z,4.67
2019-03-17T13:47:57.865Z,5.30
2019-03-17T13:49:23.309Z,4.43
2019-03-17T13:50:48.805Z,4.50
2019-03-17T13:52:14.261Z,5.40
2019-03-17T13:53:39.647Z,4.70
2019-03-17T13:55:05.340Z,4.60
2019-03-17T13:56:30.819Z,3.93
2019-03-17T13:57:57.514Z,4.67
2019-03-17T13:59:22.992Z,4.10
2019-03-17T14:00:48.472Z,4.33
2019-03-17T14:02:13.972Z,3.80
2019-03-17T14:03:39.419Z,3.90
2019-03-17T14:05:05.079Z,3.60
2019-03-17T14:06:30.540Z,5.03
2019-03-17T14:07:56.042Z,3.50
2019-03-17T14:09:21.487Z,4.13
2019-03-17T14:10:46.994Z,4.00
2019-03-17T14:12:12.492Z,3.83
2019-03-17T14:13:38.048Z,4.27
2019-03-17T14:15:03.490Z,4.17
2019-03-17T14:16:28.991Z,3.93
2019-03-17T14:17:54.428Z,4.00
2019-03-17T14:19:19.869Z,3.67
2019-03-17T14:20:45.289Z,4.13
2019-03-17T14:22:10.832Z,4.13
2019-03-17T14:23:36.312Z,4.70
2019-03-17T14:25:01.802Z,3.70
2019-03-17T14:26:27.233Z,4.07
2019-03-17T14:27:52.865Z,3.70
2019-03-17T14:29:18.338Z,4.60
2019-03-17T14:30:43.816Z,4.37
2019-03-17T14:32:09.275Z,4.93
2019-03-17T14:33:34.702Z,5.40
2019-03-17T14:35:00.365Z,4.50
2019-03-17T14:36:25.873Z,4.20
2019-03-17T14:37:51.353Z,4.87
2019-03-17T14:39:16.796Z,3.77
2019-03-17T14:40:52.840Z,4.80
2019-03-17T14:42:09.399Z,4.77
2019-03-17T14:43:35.016Z,4.30
2019-03-17T14:45:00.483Z,4.80
2019-03-17T14:46:26.023Z,4.07
2019-03-17T14:47:51.642Z,4.67
2019-03-17T14:49:17.108Z,4.07
2019-03-17T14:50:42.581Z,3.53
2019-03-17T14:52:08.136Z,3.83
2019-03-17T14:53:33.653Z,4.17
2019-03-17T14:54:59.195Z,3.77
2019-03-17T14:56:24.787Z,4.20
2019-03-17T14:57:50.241Z,4.13
2019-03-17T14:59:15.788Z,3.70
2019-03-17T15:00:41.355Z,4.63
2019-03-17T15:02:06.990Z,3.43
2019-03-17T15:03:32.559Z,3.83
2019-03-17T15:04:58.026Z,4.07
2019-03-17T15:06:23.464Z,3.90
2019-03-17T15:07:49.004Z,3.40
2019-03-17T15:09:14.455Z,4.73
2019-03-17T15:10:39.979Z,4.80
2019-03-17T15:12:05.737Z,4.93
2019-03-17T15:13:31.227Z,3.83
2019-03-17T15:14:56.708Z,3.67
2019-03-17T15:16:22.142Z,4.27
2019-03-17T15:17:48.090Z,4.37
2019-03-17T15:19:13.819Z,4.20
2019-03-17T15:20:39.268Z,5.17
2019-03-17T15:22:04.846Z,4.57
2019-03-17T15:23:30.273Z,4.00
2019-03-17T15:24:55.699Z,4.50
2019-03-17T15:26:21.164Z,4.63
2019-03-17T15:28:05.755Z,4.00
2019-03-17T15:29:31.197Z,4.50
2019-03-17T15:31:10.218Z,4.77
2019-03-17T15:32:23.704Z,4.30
2019-03-17T15:33:49.208Z,5.43
2019-03-17T15:35:14.792Z,5.03
2019-03-17T15:36:40.265Z,3.63
2019-03-17T15:38:06.007Z,4.47
2019-03-17T15:39:31.477Z,4.57
2019-03-17T15:40:56.889Z,3.63
2019-03-17T15:42:22.344Z,3.67
2019-03-17T15:43:47.865Z,5.40
2019-03-17T15:45:15.039Z,3.87
2019-03-17T15:46:40.599Z,5.30
2019-03-17T15:48:06.076Z,4.97
2019-03-17T15:49:31.555Z,3.90
2019-03-17T15:50:57.231Z,4.93
2019-03-17T15:52:22.688Z,3.47
2019-03-17T15:53:48.167Z,4.17
2019-03-17T15:55:14.414Z,3.80
2019-03-17T15:56:39.920Z,4.37
2019-03-17T15:58:05.738Z,3.30
2019-03-17T15:59:31.215Z,4.50
2019-03-17T16:00:56.646Z,4.83
2019-03-17T16:02:22.189Z,3.40
2019-03-17T16:03:47.682Z,4.33
2019-03-17T16:05:13.507Z,4.40
2019-03-17T16:06:38.966Z,4.63
2019-03-17T16:08:04.449Z,3.77
2019-03-17T16:09:30.332Z,3.70
2019-03-17T16:10:55.783Z,3.93
2019-03-17T16:12:21.197Z,3.77
2019-03-17T16:13:47.303Z,3.80
2019-03-17T16:15:13.761Z,4.25
2019-03-17T16:16:39.222Z,4.30
2019-03-17T16:18:06.817Z,3.97
2019-03-17T16:19:32.331Z,4.47
2019-03-17T16:20:57.849Z,4.60
2019-03-17T16:22:23.380Z,3.70
2019-03-17T16:23:48.785Z,3.43
2019-03-17T16:25:15.024Z,3.60
2019-03-17T16:26:40.487Z,4.20
2019-03-17T16:28:06.319Z,3.60
2019-03-17T16:29:31.800Z,4.00
2019-03-17T16:30:57.234Z,4.10
2019-03-17T16:32:22.835Z,4.50
2019-03-17T16:33:48.414Z,4.33
2019-03-17T16:35:14.088Z,4.70
2019-03-17T16:36:39.627Z,4.37
2019-03-17T16:38:05.196Z,4.47
2019-03-17T16:39:30.638Z,3.77
2019-03-17T16:40:56.095Z,3.80
2019-03-17T16:42:21.566Z,4.17
2019-03-17T16:43:47.060Z,4.80
2019-03-17T16:45:13.205Z,4.17
2019-03-17T16:46:38.662Z,4.10
2019-03-17T16:48:04.358Z,4.07
2019-03-17T16:49:29.811Z,3.80
2019-03-17T16:50:55.285Z,4.20
2019-03-17T16:52:20.745Z,4.43
2019-03-17T16:53:46.310Z,4.90
2019-03-17T16:55:13.156Z,3.90
2019-03-17T16:56:38.687Z,5.10
2019-03-17T16:58:04.462Z,3.60
2019-03-17T16:59:29.939Z,4.20
2019-03-17T17:00:55.505Z,4.63
2019-03-17T17:02:21.312Z,4.47
2019-03-17T17:03:46.838Z,4.07
2019-03-17T17:05:12.760Z,3.77
2019-03-17T17:06:38.299Z,3.70
2019-03-17T17:08:03.789Z,4.20
2019-03-17T17:09:29.399Z,5.03
2019-03-17T17:10:54.909Z,3.70
2019-03-17T17:12:20.517Z,4.90
2019-03-17T17:13:46.016Z,4.30
2019-03-17T17:15:15.117Z,3.33
2019-03-17T17:16:40.592Z,5.00
2019-03-17T17:18:06.063Z,3.90
2019-03-17T17:19:31.795Z,4.40
2019-03-17T17:20:57.263Z,4.17
2019-03-17T17:22:22.733Z,4.40
2019-03-17T17:23:48.254Z,4.37
2019-03-17T17:25:13.916Z,3.73
2019-03-17T17:26:39.372Z,4.27
2019-03-17T17:28:05.299Z,3.73
2019-03-17T17:29:30.748Z,5.23
2019-03-17T17:30:56.165Z,3.77
2019-03-17T17:32:21.653Z,4.33
2019-03-17T17:33:47.647Z,4.07
2019-03-17T17:35:13.373Z,4.67
2019-03-17T17:36:39.111Z,5.33
2019-03-17T17:38:04.883Z,5.17
2019-03-17T17:39:30.471Z,5.00
2019-03-17T17:40:56.141Z,4.10
2019-03-17T17:42:21.631Z,5.13
2019-03-17T17:43:47.306Z,4.70
2019-03-17T17:45:14.335Z,4.60
2019-03-17T17:46:39.806Z,6.70
2019-03-17T17:48:05.531Z,6.10
2019-03-17T17:49:31.039Z,6.60
2019-03-17T17:50:56.605Z,6.60
2019-03-17T17:52:22.284Z,5.50
2019-03-17T17:53:47.704Z,5.27
2019-03-17T17:55:13.531Z,4.53
2019-03-17T17:56:39.019Z,4.97
2019-03-17T17:58:04.899Z,5.00
2019-03-17T17:59:30.378Z,4.53
2019-03-17T18:00:55.813Z,4.80
2019-03-17T18:02:21.244Z,4.80
2019-03-17T18:03:51.660Z,4.70
2019-03-17T18:05:13.955Z,3.77
2019-03-17T18:06:39.565Z,4.70
2019-03-17T18:08:05.563Z,5.20
2019-03-17T18:09:31.055Z,5.20
2019-03-17T18:10:56.698Z,6.20
2019-03-17T18:12:22.159Z,6.17
2019-03-17T18:13:47.594Z,5.50
2019-03-17T18:15:14.829Z,5.53
2019-03-17T18:16:41.727Z,6.53
2019-03-17T18:18:07.482Z,5.80
2019-03-17T18:19:32.943Z,5.50
2019-03-17T18:20:58.459Z,6.37
2019-03-17T18:22:25.768Z,7.57
2019-03-17T18:23:51.252Z,6.40
2019-03-17T18:25:16.865Z,6.50
2019-03-17T18:26:42.679Z,7.20
2019-03-17T18:28:08.221Z,6.63
2019-03-17T18:29:33.927Z,8.20
2019-03-17T18:30:59.385Z,8.07
2019-03-17T18:32:24.948Z,6.60
2019-03-17T18:33:50.381Z,6.77
2019-03-17T18:35:15.923Z,8.20
2019-03-17T18:36:41.774Z,6.57
2019-03-17T18:38:07.300Z,7.63
2019-03-17T18:39:32.777Z,6.10
2019-03-17T18:40:58.473Z,5.90
2019-03-17T18:42:32.467Z,7.00
2019-03-17T18:43:51.027Z,5.70
2019-03-17T18:45:18.243Z,6.00
2019-03-17T18:46:43.659Z,5.10
2019-03-17T18:48:09.460Z,4.57
2019-03-17T18:51:21.490Z,6.40
2019-03-17T18:52:47.012Z,6.20
2019-03-17T18:54:12.490Z,6.10
2019-03-17T18:55:56.875Z,6.03
2019-03-17T18:57:22.524Z,5.50